createdAt,value
2018-12-17T00:00:55.378Z,5.90
2018-12-17T00:01:55.361Z,6.00
2018-12-17T00:02:55.348Z,6.00
2018-12-17T00:03:55.338Z,6.20
2018-12-17T00:04:55.328Z,6.30
2018-12-17T00:05:55.316Z,5.90
2018-12-17T00:06:55.311Z,6.10
2018-12-17T00:07:55.291Z,6.30
2018-12-17T00:08:55.282Z,6.00
2018-12-17T00:09:55.270Z,6.10
2018-12-17T00:10:55.258Z,6.20
2018-12-17T00:11:55.276Z,6.50
2018-12-17T00:12:55.245Z,5.90
2018-12-17T00:13:55.226Z,6.10
2018-12-17T00:14:55.214Z,5.80
2018-12-17T00:15:55.204Z,6.10
2018-12-17T00:16:55.191Z,6.30
2018-12-17T00:17:55.182Z,6.30
2018-12-17T00:18:55.177Z,6.20
2018-12-17T00:19:55.159Z,5.80
2018-12-17T00:20:55.150Z,6.10
2018-12-17T00:21:55.139Z,6.60
2018-12-17T00:22:55.129Z,6.20
2018-12-17T00:23:55.117Z,6.50
2018-12-17T00:24:55.432Z,6.10
2018-12-17T00:25:55.093Z,6.20
2018-12-17T00:26:55.082Z,6.00
2018-12-17T00:27:55.070Z,6.30
2018-12-17T00:28:55.060Z,6.20
2018-12-17T00:29:55.049Z,6.20
2018-12-17T00:30:55.323Z,6.00
2018-12-17T00:31:55.027Z,6.10
2018-12-17T00:32:55.019Z,6.10
2018-12-17T00:33:55.004Z,6.40
2018-12-17T00:34:54.994Z,6.10
2018-12-17T00:35:54.983Z,6.10
2018-12-17T00:36:55.296Z,6.20
2018-12-17T00:37:54.961Z,6.20
2018-12-17T00:38:54.948Z,5.90
2018-12-17T00:39:54.942Z,6.00
2018-12-17T00:40:54.927Z,6.00
2018-12-17T00:41:54.917Z,6.40
2018-12-17T00:42:55.180Z,6.50
2018-12-17T00:43:54.894Z,6.30
2018-12-17T00:44:54.884Z,5.90
2018-12-17T00:45:54.872Z,6.10
2018-12-17T00:46:54.861Z,6.00
2018-12-17T00:47:54.849Z,6.10
2018-12-17T00:48:54.862Z,6.70
2018-12-17T00:49:54.829Z,6.20
2018-12-17T00:50:54.819Z,5.90
2018-12-17T00:51:54.807Z,6.30
2018-12-17T00:52:54.796Z,6.40
2018-12-17T00:53:54.786Z,6.50
2018-12-17T00:54:54.779Z,6.50
2018-12-17T00:55:54.763Z,6.10
2018-12-17T00:56:54.752Z,6.30
2018-12-17T00:57:54.740Z,6.30
2018-12-17T00:58:54.729Z,6.20
2018-12-17T00:59:54.718Z,6.50
2018-12-17T01:00:54.712Z,6.20
2018-12-17T01:01:54.695Z,6.10
2018-12-17T01:02:54.684Z,6.30
2018-12-17T01:03:54.672Z,6.40
2018-12-17T01:04:54.664Z,6.70
2018-12-17T01:05:54.651Z,6.10
2018-12-17T01:06:54.647Z,6.20
2018-12-17T01:07:54.630Z,6.40
2018-12-17T01:08:54.618Z,6.10
2018-12-17T01:09:54.606Z,6.10
2018-12-17T01:10:54.597Z,6.30
2018-12-17T01:11:54.584Z,6.30
2018-12-17T01:12:54.582Z,6.40
2018-12-17T01:13:54.565Z,6.30
2018-12-17T01:14:54.552Z,6.40
2018-12-17T01:15:54.545Z,6.50
2018-12-17T01:16:54.530Z,6.20
2018-12-17T01:17:54.522Z,5.90
2018-12-17T01:18:54.528Z,6.10
2018-12-17T01:19:54.496Z,6.30
2018-12-17T01:20:54.486Z,6.10
2018-12-17T01:21:54.474Z,6.50
2018-12-17T01:22:54.464Z,6.50
2018-12-17T01:23:54.453Z,6.10
2018-12-17T01:24:54.450Z,6.60
2018-12-17T01:25:54.431Z,6.80
2018-12-17T01:26:54.419Z,6.00
2018-12-17T01:27:54.410Z,6.20
2018-12-17T01:28:54.396Z,6.20
2018-12-17T01:29:54.386Z,6.20
2018-12-17T01:30:54.382Z,6.20
2018-12-17T01:31:54.363Z,6.90
2018-12-17T01:32:54.357Z,5.90
2018-12-17T01:33:54.342Z,6.40
2018-12-17T01:34:54.332Z,6.40
2018-12-17T01:35:54.320Z,6.50
2018-12-17T01:36:54.318Z,6.20
2018-12-17T01:37:54.307Z,6.50
2018-12-17T01:38:54.287Z,6.40
2018-12-17T01:39:54.277Z,6.10
2018-12-17T01:40:54.265Z,6.30
2018-12-17T01:41:54.253Z,6.10
2018-12-17T01:42:54.253Z,6.70
2018-12-17T01:43:54.230Z,6.20
2018-12-17T01:44:54.221Z,6.20
2018-12-17T01:45:54.209Z,6.30
2018-12-17T01:46:54.198Z,6.80
2018-12-17T01:47:54.187Z,6.50
2018-12-17T01:48:54.186Z,6.30
2018-12-17T01:49:54.164Z,6.20
2018-12-17T01:50:54.156Z,6.10
2018-12-17T01:51:54.150Z,6.20
2018-12-17T01:52:54.130Z,6.00
2018-12-17T01:53:54.119Z,5.90
2018-12-17T01:54:54.116Z,6.60
2018-12-17T01:55:54.097Z,6.30
2018-12-17T01:56:54.087Z,6.40
2018-12-17T01:57:54.077Z,6.30
2018-12-17T01:58:54.064Z,6.50
2018-12-17T01:59:54.054Z,6.40
2018-12-17T02:00:54.052Z,6.90
2018-12-17T02:01:54.031Z,6.10
2018-12-17T02:02:54.020Z,6.60
2018-12-17T02:03:54.009Z,6.90
2018-12-17T02:04:53.999Z,6.50
2018-12-17T02:05:53.989Z,6.90
2018-12-17T02:06:53.984Z,6.40
2018-12-17T02:07:53.971Z,6.40
2018-12-17T02:08:53.955Z,6.10
2018-12-17T02:09:53.943Z,6.10
2018-12-17T02:10:53.931Z,6.80
2018-12-17T02:11:53.921Z,6.40
2018-12-17T02:12:53.920Z,6.40
2018-12-17T02:13:53.898Z,6.20
2018-12-17T02:14:53.887Z,5.90
2018-12-17T02:15:53.877Z,6.60
2018-12-17T02:16:53.866Z,6.60
2018-12-17T02:17:53.854Z,6.60
2018-12-17T02:18:53.899Z,6.30
2018-12-17T02:19:53.836Z,6.50
2018-12-17T02:20:53.822Z,6.20
2018-12-17T02:21:53.815Z,7.00
2018-12-17T02:22:53.800Z,6.80
2018-12-17T02:23:53.788Z,6.10
2018-12-17T02:24:53.785Z,6.60
2018-12-17T02:25:53.768Z,6.40
2018-12-17T02:26:53.756Z,6.50
2018-12-17T02:27:53.748Z,6.80
2018-12-17T02:28:53.733Z,6.20
2018-12-17T02:29:53.723Z,6.30
2018-12-17T02:30:53.999Z,6.60
2018-12-17T02:31:53.700Z,6.30
2018-12-17T02:32:53.693Z,6.40
2018-12-17T02:33:53.678Z,6.90
2018-12-17T02:34:53.665Z,6.70
2018-12-17T02:35:53.655Z,6.10
2018-12-17T02:36:53.931Z,6.50
2018-12-17T02:37:53.633Z,6.60
2018-12-17T02:38:53.624Z,6.30
2018-12-17T02:39:53.610Z,6.50
2018-12-17T02:40:53.600Z,6.30
2018-12-17T02:41:53.589Z,5.80
2018-12-17T02:42:53.906Z,6.40
2018-12-17T02:43:53.567Z,6.50
2018-12-17T02:44:53.555Z,6.40
2018-12-17T02:45:53.558Z,6.10
2018-12-17T02:46:53.535Z,6.00
2018-12-17T02:47:53.522Z,6.50
2018-12-17T02:48:53.795Z,6.30
2018-12-17T02:49:53.500Z,6.30
2018-12-17T02:50:53.490Z,7.00
2018-12-17T02:51:53.477Z,6.20
2018-12-17T02:52:53.470Z,6.40
2018-12-17T02:53:53.458Z,6.40
2018-12-17T02:54:53.452Z,6.70
2018-12-17T02:55:53.435Z,6.50
2018-12-17T02:56:53.422Z,6.20
2018-12-17T02:57:53.411Z,6.40
2018-12-17T02:58:53.402Z,6.50
2018-12-17T02:59:53.392Z,6.50
2018-12-17T03:00:53.391Z,6.10
2018-12-17T03:01:53.369Z,6.60
2018-12-17T03:02:53.356Z,6.90
2018-12-17T03:03:53.346Z,6.30
2018-12-17T03:04:53.335Z,6.40
2018-12-17T03:05:53.328Z,6.30
2018-12-17T03:06:53.321Z,6.00
2018-12-17T03:07:53.303Z,6.60
2018-12-17T03:08:53.292Z,6.30
2018-12-17T03:09:53.281Z,6.20
2018-12-17T03:10:53.267Z,6.30
2018-12-17T03:11:53.261Z,6.40
2018-12-17T03:12:53.520Z,6.40
2018-12-17T03:13:53.235Z,6.10
2018-12-17T03:14:53.227Z,6.30
2018-12-17T03:15:53.214Z,6.30
2018-12-17T03:16:53.202Z,6.60
2018-12-17T03:17:53.191Z,6.50
2018-12-17T03:18:53.197Z,6.20
2018-12-17T03:19:53.170Z,6.20
2018-12-17T03:20:53.160Z,5.90
2018-12-17T03:21:53.147Z,6.70
2018-12-17T03:22:53.138Z,6.20
2018-12-17T03:23:53.125Z,6.30
2018-12-17T03:24:53.122Z,6.50
2018-12-17T03:25:53.103Z,6.40
2018-12-17T03:26:53.092Z,6.40
2018-12-17T03:27:53.079Z,6.20
2018-12-17T03:28:53.071Z,6.50
2018-12-17T03:29:53.060Z,6.20
2018-12-17T03:30:53.065Z,6.20
2018-12-17T03:31:53.040Z,6.40
2018-12-17T03:32:53.038Z,7.00
2018-12-17T03:33:53.014Z,6.70
2018-12-17T03:34:53.016Z,6.60
2018-12-17T03:35:52.993Z,6.70
2018-12-17T03:36:52.992Z,6.30
2018-12-17T03:37:52.971Z,6.70
2018-12-17T03:38:52.966Z,6.70
2018-12-17T03:39:52.949Z,6.70
2018-12-17T03:40:52.964Z,6.60
2018-12-17T03:41:52.926Z,6.50
2018-12-17T03:42:52.928Z,6.60
2018-12-17T03:43:52.905Z,6.30
2018-12-17T03:44:52.894Z,6.40
2018-12-17T03:45:52.883Z,6.70
2018-12-17T03:46:52.874Z,6.20
2018-12-17T03:47:52.862Z,6.50
2018-12-17T03:48:53.138Z,6.20
2018-12-17T03:49:52.838Z,6.20
2018-12-17T03:50:52.830Z,6.50
2018-12-17T03:51:52.815Z,6.30
2018-12-17T03:52:52.806Z,6.10
2018-12-17T03:53:52.793Z,7.30
2018-12-17T03:54:52.803Z,6.40
2018-12-17T03:55:52.773Z,6.20
2018-12-17T03:56:52.760Z,6.40
2018-12-17T03:57:52.761Z,6.20
2018-12-17T03:58:59.149Z,6.40
2018-12-17T03:59:53.734Z,6.80
2018-12-17T04:00:52.715Z,6.40
2018-12-17T04:01:52.705Z,6.50
2018-12-17T04:02:52.697Z,6.70
2018-12-17T04:03:52.682Z,6.60
2018-12-17T04:04:52.671Z,6.50
2018-12-17T04:05:52.673Z,6.30
2018-12-17T04:06:52.650Z,6.50
2018-12-17T04:07:52.641Z,6.50
2018-12-17T04:08:52.629Z,6.70
2018-12-17T04:09:52.615Z,6.90
2018-12-17T04:10:52.609Z,6.60
2018-12-17T04:11:52.605Z,6.70
2018-12-17T04:12:52.585Z,6.70
2018-12-17T04:13:52.573Z,6.30
2018-12-17T04:14:52.561Z,6.60
2018-12-17T04:15:52.550Z,6.40
2018-12-17T04:16:52.541Z,6.70
2018-12-17T04:17:52.852Z,6.60
2018-12-17T04:18:52.521Z,6.50
2018-12-17T04:19:52.515Z,6.90
2018-12-17T04:20:52.496Z,6.70
2018-12-17T04:21:53.034Z,7.00
2018-12-17T04:22:52.474Z,6.60
2018-12-17T04:23:52.802Z,6.80
2018-12-17T04:24:52.453Z,6.60
2018-12-17T04:25:52.439Z,6.90
2018-12-17T04:26:52.431Z,6.60
2018-12-17T04:27:52.419Z,6.50
2018-12-17T04:28:52.407Z,6.60
2018-12-17T04:29:52.403Z,6.40
2018-12-17T04:30:52.384Z,6.40
2018-12-17T04:31:52.373Z,6.40
2018-12-17T04:32:52.364Z,6.90
2018-12-17T04:33:52.352Z,6.70
2018-12-17T04:34:52.339Z,6.50
2018-12-17T04:35:52.340Z,6.60
2018-12-17T04:36:52.319Z,6.40
2018-12-17T04:37:52.306Z,6.30
2018-12-17T04:38:52.300Z,6.90
2018-12-17T04:39:52.284Z,6.90
2018-12-17T04:40:52.274Z,7.00
2018-12-17T04:41:52.271Z,6.90
2018-12-17T04:42:52.252Z,6.60
2018-12-17T04:43:52.243Z,6.50
2018-12-17T04:44:52.231Z,6.70
2018-12-17T04:45:52.219Z,6.70
2018-12-17T04:46:52.208Z,6.50
2018-12-17T04:47:52.204Z,6.90
2018-12-17T04:48:52.187Z,6.80
2018-12-17T04:49:52.178Z,6.60
2018-12-17T04:50:52.163Z,6.80
2018-12-17T04:51:52.153Z,6.80
2018-12-17T04:52:52.142Z,6.70
2018-12-17T04:53:52.414Z,6.50
2018-12-17T04:54:52.119Z,7.40
2018-12-17T04:55:52.108Z,6.70
2018-12-17T04:56:52.099Z,6.80
2018-12-17T04:57:52.087Z,6.60
2018-12-17T04:58:52.075Z,6.70
2018-12-17T04:59:52.071Z,6.90
2018-12-17T05:00:52.052Z,6.90
2018-12-17T05:01:52.041Z,6.60
2018-12-17T05:02:52.031Z,7.10
2018-12-17T05:03:52.021Z,6.50
2018-12-17T05:04:52.008Z,6.60
2018-12-17T05:05:52.005Z,7.00
2018-12-17T05:06:51.988Z,6.70
2018-12-17T05:07:51.974Z,6.90
2018-12-17T05:08:51.964Z,6.70
2018-12-17T05:09:51.954Z,6.60
2018-12-17T05:10:51.943Z,6.60
2018-12-17T05:11:52.005Z,7.10
2018-12-17T05:12:51.920Z,6.60
2018-12-17T05:13:51.910Z,6.50
2018-12-17T05:14:51.900Z,6.80
2018-12-17T05:15:51.887Z,7.00
2018-12-17T05:16:51.878Z,7.10
2018-12-17T05:17:51.872Z,6.90
2018-12-17T05:18:51.854Z,7.20
2018-12-17T05:19:51.845Z,6.50
2018-12-17T05:20:51.832Z,7.00
2018-12-17T05:21:51.821Z,6.70
2018-12-17T05:22:51.816Z,6.70
2018-12-17T05:23:51.809Z,6.50
2018-12-17T05:24:51.789Z,7.00
2018-12-17T05:25:51.777Z,6.80
2018-12-17T05:26:51.765Z,6.50
2018-12-17T05:27:51.755Z,6.40
2018-12-17T05:28:51.744Z,6.60
2018-12-17T05:29:51.739Z,7.10
2018-12-17T05:30:51.722Z,7.10
2018-12-17T05:31:51.713Z,6.90
2018-12-17T05:32:51.699Z,7.10
2018-12-17T05:33:51.688Z,6.90
2018-12-17T05:34:51.681Z,7.20
2018-12-17T05:35:51.953Z,7.00
2018-12-17T05:36:51.655Z,7.00
2018-12-17T05:37:51.648Z,6.60
2018-12-17T05:38:51.633Z,7.30
2018-12-17T05:39:51.625Z,6.90
2018-12-17T05:40:51.611Z,7.00
2018-12-17T05:41:51.870Z,6.80
2018-12-17T05:42:51.589Z,7.00
2018-12-17T05:43:51.577Z,7.10
2018-12-17T05:44:51.567Z,6.90
2018-12-17T05:45:51.556Z,6.90
2018-12-17T05:46:51.545Z,7.00
2018-12-17T05:47:51.820Z,6.90
2018-12-17T05:48:51.522Z,7.00
2018-12-17T05:49:51.512Z,7.10
2018-12-17T05:50:51.501Z,6.80
2018-12-17T05:51:51.494Z,6.60
2018-12-17T05:52:51.479Z,7.10
2018-12-17T05:53:51.751Z,7.00
2018-12-17T05:54:51.457Z,7.00
2018-12-17T05:55:51.445Z,7.00
2018-12-17T05:56:51.435Z,6.90
2018-12-17T05:57:51.425Z,7.00
2018-12-17T05:58:51.413Z,6.90
2018-12-17T05:59:51.409Z,7.00
2018-12-17T06:00:51.390Z,6.40
2018-12-17T06:01:51.379Z,6.60
2018-12-17T06:02:51.370Z,7.30
2018-12-17T06:03:51.357Z,7.50
2018-12-17T06:04:51.347Z,6.70
2018-12-17T06:05:51.617Z,6.80
2018-12-17T06:06:51.324Z,7.10
2018-12-17T06:07:51.313Z,6.90
2018-12-17T06:08:51.301Z,7.20
2018-12-17T06:09:51.290Z,7.10
2018-12-17T06:10:51.279Z,7.00
2018-12-17T06:11:51.556Z,6.90
2018-12-17T06:12:51.259Z,6.80
2018-12-17T06:13:51.246Z,7.10
2018-12-17T06:14:51.237Z,6.90
2018-12-17T06:15:51.224Z,6.70
2018-12-17T06:16:51.213Z,6.80
2018-12-17T06:17:51.478Z,6.80
2018-12-17T06:18:51.191Z,6.80
2018-12-17T06:19:51.180Z,6.50
2018-12-17T06:20:51.171Z,6.30
2018-12-17T06:21:51.159Z,6.80
2018-12-17T06:22:51.148Z,6.60
2018-12-17T06:23:51.144Z,6.60
2018-12-17T06:24:51.125Z,6.90
2018-12-17T06:25:51.114Z,6.40
2018-12-17T06:26:51.106Z,6.10
2018-12-17T06:27:51.092Z,6.20
2018-12-17T06:28:51.081Z,6.60
2018-12-17T06:29:51.075Z,7.00
2018-12-17T06:30:51.058Z,6.90
2018-12-17T06:31:51.055Z,6.80
2018-12-17T06:32:51.036Z,7.00
2018-12-17T06:33:51.026Z,6.80
2018-12-17T06:34:51.014Z,6.80
2018-12-17T06:35:51.276Z,7.00
2018-12-17T06:36:50.991Z,6.90
2018-12-17T06:37:50.982Z,6.80
2018-12-17T06:38:50.969Z,6.40
2018-12-17T06:39:50.959Z,6.80
2018-12-17T06:40:50.949Z,6.50
2018-12-17T06:41:50.942Z,6.80
2018-12-17T06:42:50.928Z,6.60
2018-12-17T06:43:50.915Z,6.80
2018-12-17T06:44:50.905Z,6.70
2018-12-17T06:45:50.893Z,6.60
2018-12-17T06:46:50.882Z,6.60
2018-12-17T06:47:51.157Z,6.70
2018-12-17T06:48:50.859Z,6.80
2018-12-17T06:49:50.847Z,6.60
2018-12-17T06:50:50.839Z,6.90
2018-12-17T06:51:50.826Z,6.70
2018-12-17T06:52:50.817Z,6.50
2018-12-17T06:53:50.814Z,7.10
2018-12-17T06:54:54.686Z,6.70
2018-12-17T06:55:50.783Z,6.30
2018-12-17T06:56:50.771Z,6.50
2018-12-17T06:57:50.760Z,6.70
2018-12-17T06:58:50.750Z,6.30
2018-12-17T06:59:51.027Z,6.60
2018-12-17T07:00:50.728Z,6.70
2018-12-17T07:01:50.719Z,6.40
2018-12-17T07:02:50.773Z,6.40
2018-12-17T07:03:50.695Z,6.60
2018-12-17T07:04:50.683Z,6.60
2018-12-17T07:05:50.681Z,6.70
2018-12-17T07:06:50.662Z,6.90
2018-12-17T07:07:50.649Z,6.50
2018-12-17T07:08:50.799Z,6.80
2018-12-17T07:09:50.627Z,6.70
2018-12-17T07:10:50.622Z,6.80
2018-12-17T07:11:50.890Z,7.00
2018-12-17T07:12:50.596Z,6.50
2018-12-17T07:13:50.585Z,6.40
2018-12-17T07:14:50.573Z,6.80
2018-12-17T07:15:50.565Z,6.50
2018-12-17T07:16:50.552Z,6.40
2018-12-17T07:17:50.827Z,6.40
2018-12-17T07:18:50.529Z,6.20
2018-12-17T07:19:50.517Z,6.50
2018-12-17T07:20:50.507Z,6.50
2018-12-17T07:21:50.496Z,6.40
2018-12-17T07:22:50.484Z,6.50
2018-12-17T07:23:50.759Z,6.60
2018-12-17T07:24:50.461Z,6.80
2018-12-17T07:25:50.451Z,6.30
2018-12-17T07:26:50.443Z,6.70
2018-12-17T07:27:50.432Z,6.50
2018-12-17T07:28:50.419Z,6.80
2018-12-17T07:29:50.416Z,6.80
2018-12-17T07:30:50.396Z,6.80
2018-12-17T07:31:50.386Z,6.70
2018-12-17T07:32:50.375Z,6.40
2018-12-17T07:33:50.363Z,6.60
2018-12-17T07:34:50.351Z,6.30
2018-12-17T07:35:50.353Z,6.30
2018-12-17T07:36:50.330Z,6.60
2018-12-17T07:37:50.319Z,6.70
2018-12-17T07:38:50.308Z,6.50
2018-12-17T07:39:50.295Z,6.50
2018-12-17T07:40:50.285Z,6.60
2018-12-17T07:41:50.574Z,6.30
2018-12-17T07:42:50.265Z,6.90
2018-12-17T07:43:50.252Z,6.70
2018-12-17T07:44:50.241Z,6.60
2018-12-17T07:45:50.230Z,6.80
2018-12-17T07:46:50.221Z,6.60
2018-12-17T07:47:50.515Z,6.30
2018-12-17T07:48:50.198Z,6.30
2018-12-17T07:49:50.188Z,6.10
2018-12-17T07:50:50.176Z,6.40
2018-12-17T07:51:50.167Z,6.40
2018-12-17T07:52:50.154Z,6.60
2018-12-17T07:53:50.149Z,6.60
2018-12-17T07:54:50.131Z,7.10
2018-12-17T07:55:50.120Z,6.90
2018-12-17T07:56:50.112Z,6.40
2018-12-17T07:57:50.178Z,6.60
2018-12-17T07:58:50.090Z,6.50
2018-12-17T07:59:56.529Z,6.70
2018-12-17T08:00:51.064Z,6.50
2018-12-17T08:01:50.054Z,6.90
2018-12-17T08:02:50.045Z,6.50
2018-12-17T08:03:50.033Z,6.80
2018-12-17T08:04:50.022Z,7.00
2018-12-17T08:05:50.020Z,6.30
2018-12-17T08:06:50.000Z,6.50
2018-12-17T08:07:49.989Z,7.00
2018-12-17T08:08:49.976Z,6.10
2018-12-17T08:09:49.966Z,6.10
2018-12-17T08:10:49.955Z,7.20
2018-12-17T08:11:49.950Z,6.70
2018-12-17T08:12:49.932Z,6.40
2018-12-17T08:13:49.922Z,6.70
2018-12-17T08:14:49.911Z,7.00
2018-12-17T08:15:49.901Z,6.70
2018-12-17T08:16:49.889Z,6.70
2018-12-17T08:18:07.426Z,6.90
2018-12-17T08:18:52.459Z,6.60
2018-12-17T08:19:52.421Z,7.10
2018-12-17T08:20:49.923Z,6.60
2018-12-17T08:23:04.863Z,6.70
2018-12-17T08:23:59.394Z,6.80
2018-12-17T08:25:04.374Z,7.10
2018-12-17T08:25:59.352Z,6.60
2018-12-17T08:27:33.328Z,6.90
2018-12-17T08:28:02.346Z,6.80
2018-12-17T08:30:21.684Z,5.70
2018-12-17T08:31:17.313Z,6.20
2018-12-17T08:32:06.443Z,6.80
2018-12-17T08:33:06.432Z,6.50
2018-12-17T08:34:06.421Z,6.60
2018-12-17T08:35:06.408Z,6.40
2018-12-17T08:36:06.692Z,6.70
2018-12-17T08:37:06.387Z,6.90
2018-12-17T08:38:06.374Z,6.90
2018-12-17T08:39:06.365Z,7.10
2018-12-17T08:40:06.352Z,6.70
2018-12-17T08:41:06.342Z,6.60
2018-12-17T08:42:06.627Z,6.40
2018-12-17T08:43:06.319Z,7.00
2018-12-17T08:44:06.307Z,6.60
2018-12-17T08:45:06.297Z,7.00
2018-12-17T08:46:06.285Z,6.80
2018-12-17T08:47:06.275Z,7.00
2018-12-17T08:48:06.591Z,6.90
2018-12-17T08:49:06.251Z,7.00
2018-12-17T08:50:06.242Z,6.70
2018-12-17T08:51:06.234Z,7.00
2018-12-17T08:52:06.217Z,7.50
2018-12-17T08:53:06.208Z,6.90
2018-12-17T08:54:06.477Z,7.20
2018-12-17T08:55:06.186Z,7.20
2018-12-17T08:56:06.174Z,7.00
2018-12-17T08:57:06.161Z,7.30
2018-12-17T08:58:06.152Z,7.00
2018-12-17T08:59:06.139Z,7.00
2018-12-17T09:00:10.986Z,6.60
2018-12-17T09:01:07.115Z,7.20
2018-12-17T09:02:06.106Z,7.00
2018-12-17T09:03:06.107Z,6.50
2018-12-17T09:04:06.082Z,7.00
2018-12-17T09:05:06.072Z,6.60
2018-12-17T09:06:06.067Z,6.30
2018-12-17T09:07:06.052Z,6.40
2018-12-17T09:08:06.038Z,6.80
2018-12-17T09:09:06.027Z,6.70
2018-12-17T09:10:06.018Z,6.20
2018-12-17T09:11:06.004Z,6.90
2018-12-17T09:12:06.268Z,6.60
2018-12-17T09:13:05.983Z,7.10
2018-12-17T09:14:05.975Z,6.70
2018-12-17T09:15:05.960Z,7.50
2018-12-17T09:16:05.947Z,6.40
2018-12-17T09:17:05.938Z,7.10
2018-12-17T09:18:07.275Z,6.80
2018-12-17T09:19:05.981Z,7.10
2018-12-17T09:20:05.903Z,6.50
2018-12-17T09:21:05.893Z,6.60
2018-12-17T09:22:05.882Z,7.00
2018-12-17T09:23:05.870Z,6.30
2018-12-17T09:24:06.141Z,6.30
2018-12-17T09:25:05.848Z,6.60
2018-12-17T09:26:05.836Z,7.20
2018-12-17T09:27:05.827Z,6.20
2018-12-17T09:28:05.815Z,6.40
2018-12-17T09:29:05.802Z,6.40
2018-12-17T09:30:06.053Z,6.90
2018-12-17T09:31:05.782Z,7.10
2018-12-17T09:32:05.769Z,7.10
2018-12-17T09:33:05.757Z,6.70
2018-12-17T09:34:05.745Z,6.50
2018-12-17T09:35:05.735Z,6.60
2018-12-17T09:36:06.042Z,6.60
2018-12-17T09:37:05.716Z,6.80
2018-12-17T09:38:05.709Z,6.90
2018-12-17T09:39:05.689Z,6.30
2018-12-17T09:40:05.679Z,6.50
2018-12-17T09:41:05.669Z,6.60
2018-12-17T09:42:05.977Z,6.40
2018-12-17T09:43:05.656Z,6.60
2018-12-17T09:44:05.638Z,6.20
2018-12-17T09:45:05.623Z,6.20
2018-12-17T09:46:05.613Z,6.80
2018-12-17T09:47:05.601Z,7.00
2018-12-17T09:48:05.599Z,6.40
2018-12-17T09:49:05.577Z,6.80
2018-12-17T09:50:05.567Z,6.60
2018-12-17T09:51:05.558Z,6.40
2018-12-17T09:52:05.544Z,6.40
2018-12-17T09:53:05.533Z,6.60
2018-12-17T09:54:05.860Z,6.50
2018-12-17T09:55:05.510Z,6.90
2018-12-17T09:56:05.498Z,6.60
2018-12-17T09:57:05.488Z,6.60
2018-12-17T09:58:05.478Z,6.30
2018-12-17T09:59:05.466Z,6.30
2018-12-17T10:00:05.462Z,6.30
2018-12-17T10:01:05.443Z,6.70
2018-12-17T10:02:05.433Z,6.30
2018-12-17T10:03:05.420Z,6.30
2018-12-17T10:04:05.412Z,6.60
2018-12-17T10:05:05.399Z,6.50
2018-12-17T10:06:05.720Z,6.60
2018-12-17T10:07:05.375Z,6.40
2018-12-17T10:08:05.364Z,6.20
2018-12-17T10:09:05.354Z,6.40
2018-12-17T10:10:05.342Z,6.70
2018-12-17T10:11:05.331Z,6.20
2018-12-17T10:12:05.647Z,6.40
2018-12-17T10:13:05.308Z,6.20
2018-12-17T10:14:05.297Z,6.50
2018-12-17T10:15:05.286Z,6.30
2018-12-17T10:16:05.275Z,6.10
2018-12-17T10:17:05.263Z,6.40
2018-12-17T10:18:05.540Z,6.30
2018-12-17T10:19:05.240Z,6.20
2018-12-17T10:20:05.228Z,6.60
2018-12-17T10:21:05.221Z,6.20
2018-12-17T10:22:05.208Z,5.70
2018-12-17T10:23:05.196Z,6.60
2018-12-17T10:24:05.460Z,6.00
2018-12-17T10:25:05.172Z,6.00
2018-12-17T10:26:05.163Z,6.60
2018-12-17T10:27:05.154Z,5.90
2018-12-17T10:28:05.144Z,6.80
2018-12-17T10:29:05.128Z,6.10
2018-12-17T10:30:05.391Z,6.10
2018-12-17T10:31:05.105Z,6.10
2018-12-17T10:32:05.097Z,6.20
2018-12-17T10:33:05.085Z,6.30
2018-12-17T10:34:05.073Z,6.50
2018-12-17T10:35:05.062Z,6.60
2018-12-17T10:36:05.339Z,7.10
2018-12-17T10:37:05.038Z,6.70
2018-12-17T10:38:05.028Z,5.90
2018-12-17T10:39:05.016Z,5.90
2018-12-17T10:40:05.005Z,6.30
2018-12-17T10:41:04.993Z,6.20
2018-12-17T10:42:05.255Z,6.10
2018-12-17T10:43:04.972Z,6.40
2018-12-17T10:44:04.960Z,6.50
2018-12-17T10:45:04.950Z,5.80
2018-12-17T10:46:04.938Z,6.40
2018-12-17T10:47:04.926Z,5.80
2018-12-17T10:48:05.209Z,6.30
2018-12-17T10:49:04.907Z,6.00
2018-12-17T10:50:04.893Z,6.30
2018-12-17T10:51:04.881Z,6.00
2018-12-17T10:52:04.870Z,5.90
2018-12-17T10:53:04.861Z,5.80
2018-12-17T10:54:05.126Z,5.60
2018-12-17T10:55:04.837Z,5.80
2018-12-17T10:56:04.824Z,6.50
2018-12-17T10:57:04.813Z,6.40
2018-12-17T10:58:04.801Z,6.20
2018-12-17T10:59:04.790Z,6.50
2018-12-17T11:00:05.066Z,6.30
2018-12-17T11:01:04.768Z,6.40
2018-12-17T11:02:04.762Z,6.00
2018-12-17T11:03:04.749Z,6.30
2018-12-17T11:04:04.737Z,6.00
2018-12-17T11:05:04.724Z,6.20
2018-12-17T11:06:05.004Z,7.20
2018-12-17T11:07:04.700Z,7.30
2018-12-17T11:08:04.690Z,7.60
2018-12-17T11:09:04.679Z,7.90
2018-12-17T11:10:04.667Z,8.30
2018-12-17T11:11:04.658Z,8.60
2018-12-17T11:12:04.938Z,8.40
2018-12-17T11:13:04.634Z,9.50
2018-12-17T11:14:04.622Z,9.90
2018-12-17T11:15:04.611Z,9.70
2018-12-17T11:16:04.601Z,9.90
2018-12-17T11:17:04.589Z,10.30
2018-12-17T11:18:04.868Z,10.40
2018-12-17T11:19:04.567Z,10.20
2018-12-17T11:20:04.556Z,10.80
2018-12-17T11:21:04.547Z,11.20
2018-12-17T11:22:04.532Z,11.00
2018-12-17T11:23:04.523Z,11.70
2018-12-17T11:24:04.799Z,10.90
2018-12-17T11:25:04.500Z,11.60
2018-12-17T11:26:04.488Z,10.90
2018-12-17T11:27:04.477Z,11.70
2018-12-17T11:28:04.466Z,11.50
2018-12-17T11:29:04.454Z,11.20
2018-12-17T11:30:04.772Z,11.70
2018-12-17T11:31:04.433Z,11.90
2018-12-17T11:32:04.423Z,11.90
2018-12-17T11:33:04.412Z,12.00
2018-12-17T11:34:04.399Z,12.60
2018-12-17T11:35:04.387Z,14.00
2018-12-17T11:36:04.706Z,13.30
2018-12-17T11:37:04.366Z,14.10
2018-12-17T11:38:04.356Z,13.90
2018-12-17T11:39:04.344Z,15.60
2018-12-17T11:40:04.332Z,15.10
2018-12-17T11:41:04.321Z,15.80
2018-12-17T11:42:04.600Z,15.20
2018-12-17T11:43:04.297Z,15.70
2018-12-17T11:44:04.285Z,14.10
2018-12-17T11:45:04.275Z,15.00
2018-12-17T11:46:04.264Z,14.70
2018-12-17T11:47:04.253Z,15.20
2018-12-17T11:48:04.511Z,15.20
2018-12-17T11:49:04.230Z,15.60
2018-12-17T11:50:04.220Z,15.40
2018-12-17T11:51:04.207Z,15.50
2018-12-17T11:52:04.196Z,15.90
2018-12-17T11:53:04.184Z,15.50
2018-12-17T11:54:04.480Z,15.90
2018-12-17T11:55:04.162Z,15.50
2018-12-17T11:56:04.153Z,15.70
2018-12-17T11:57:04.139Z,16.60
2018-12-17T11:58:04.129Z,17.30
2018-12-17T11:59:04.118Z,15.90
2018-12-17T12:00:04.386Z,17.80
2018-12-17T12:01:04.096Z,17.60
2018-12-17T12:02:04.083Z,17.50
2018-12-17T12:03:04.072Z,17.20
2018-12-17T12:04:04.062Z,17.30
2018-12-17T12:05:04.051Z,16.60
2018-12-17T12:06:04.323Z,16.10
2018-12-17T12:07:04.028Z,16.80
2018-12-17T12:08:04.016Z,16.50
2018-12-17T12:09:04.043Z,16.50
2018-12-17T12:10:03.994Z,17.80
2018-12-17T12:11:03.984Z,17.70
2018-12-17T12:12:03.981Z,17.50
2018-12-17T12:13:03.960Z,17.20
2018-12-17T12:14:03.949Z,18.10
2018-12-17T12:15:03.943Z,17.10
2018-12-17T12:16:03.929Z,16.90
2018-12-17T12:17:03.918Z,17.50
2018-12-17T12:18:04.235Z,18.00
2018-12-17T12:19:03.892Z,17.70
2018-12-17T12:20:03.881Z,17.20
2018-12-17T12:21:03.870Z,16.60
2018-12-17T12:22:03.859Z,16.40
2018-12-17T12:23:03.847Z,16.60
2018-12-17T12:24:04.112Z,16.60
2018-12-17T12:25:03.827Z,16.70
2018-12-17T12:26:03.814Z,16.40
2018-12-17T12:27:03.807Z,16.70
2018-12-17T12:28:03.820Z,16.00
2018-12-17T12:29:03.785Z,15.90
2018-12-17T12:30:03.775Z,15.70
2018-12-17T12:31:03.762Z,15.80
2018-12-17T12:32:03.747Z,15.50
2018-12-17T12:33:03.743Z,15.50
2018-12-17T12:34:03.727Z,15.20
2018-12-17T12:35:03.718Z,15.40
2018-12-17T12:36:03.709Z,15.40
2018-12-17T12:37:03.691Z,15.10
2018-12-17T12:38:03.684Z,15.10
2018-12-17T12:39:03.670Z,15.70
2018-12-17T12:40:03.658Z,15.90
2018-12-17T12:41:03.652Z,15.50
2018-12-17T12:42:03.971Z,14.40
2018-12-17T12:43:03.625Z,14.70
2018-12-17T12:44:08.815Z,15.10
2018-12-17T12:45:04.601Z,15.30
2018-12-17T12:46:03.590Z,14.60
2018-12-17T12:47:03.578Z,14.60
2018-12-17T12:48:03.857Z,15.00
2018-12-17T12:49:03.557Z,14.60
2018-12-17T12:50:03.641Z,14.90
2018-12-17T12:51:03.535Z,14.40
2018-12-17T12:52:03.522Z,14.50
2018-12-17T12:53:03.511Z,14.20
2018-12-17T12:54:03.775Z,14.00
2018-12-17T12:55:03.490Z,14.60
2018-12-17T12:56:03.479Z,14.00
2018-12-17T12:57:03.471Z,14.10
2018-12-17T12:58:04.020Z,13.60
2018-12-17T12:59:03.445Z,13.80
2018-12-17T13:00:03.442Z,14.20
2018-12-17T13:01:07.599Z,13.60
2018-12-17T13:02:03.410Z,14.00
2018-12-17T13:03:03.406Z,13.50
2018-12-17T13:04:03.388Z,13.70
2018-12-17T13:05:03.379Z,13.40
2018-12-17T13:06:03.384Z,13.40
2018-12-17T13:07:03.393Z,13.40
2018-12-17T13:08:03.344Z,12.60
2018-12-17T13:09:03.332Z,13.40
2018-12-17T13:10:03.323Z,13.30
2018-12-17T13:11:03.313Z,14.30
2018-12-17T13:12:03.582Z,14.30
2018-12-17T13:13:03.289Z,14.10
2018-12-17T13:14:03.281Z,13.60
2018-12-17T13:15:03.269Z,14.30
2018-12-17T13:16:03.254Z,14.60
2018-12-17T13:17:03.243Z,14.70